createdAt,value
2018-12-07T00:00:33.055Z,47.80
2018-12-07T00:10:38.787Z,47.90
2018-12-07T00:20:43.611Z,48.00
2018-12-07T00:30:49.020Z,48.00
2018-12-07T00:40:54.109Z,47.90
2018-12-07T00:50:58.945Z,47.90
2018-12-07T01:01:03.983Z,47.90
2018-12-07T01:11:08.674Z,47.80
2018-12-07T01:21:13.281Z,47.80
2018-12-07T01:31:18.114Z,47.90
2018-12-07T01:41:22.874Z,47.90
2018-12-07T01:51:27.627Z,47.90
2018-12-07T02:01:33.243Z,47.90
2018-12-07T02:11:37.903Z,47.90
2018-12-07T02:21:42.595Z,47.90
2018-12-07T02:31:47.352Z,48.00
2018-12-07T02:41:52.151Z,47.80
2018-12-07T02:51:56.837Z,47.80
2018-12-07T03:02:01.479Z,47.90
2018-12-07T03:12:06.331Z,47.90
2018-12-07T03:22:11.530Z,47.90
2018-12-07T03:32:16.326Z,47.90
2018-12-07T03:42:21.155Z,48.10
2018-12-07T03:52:26.769Z,48.10
2018-12-07T04:02:31.555Z,48.10
2018-12-07T04:12:36.174Z,48.00
2018-12-07T04:22:41.843Z,48.10
2018-12-07T04:32:46.614Z,48.10
2018-12-07T04:42:51.872Z,48.20
2018-12-07T04:52:56.453Z,48.10
2018-12-07T05:03:03.614Z,48.10
2018-12-07T05:13:08.368Z,48.20
2018-12-07T05:23:13.028Z,48.30
2018-12-07T05:33:18.693Z,48.20
2018-12-07T05:43:23.334Z,48.20
2018-12-07T05:53:27.892Z,48.30
2018-12-07T06:03:32.494Z,48.30
2018-12-07T06:13:37.263Z,48.20
2018-12-07T06:23:42.050Z,48.40
2018-12-07T06:33:46.681Z,48.30
2018-12-07T06:43:51.927Z,48.30
2018-12-07T06:53:56.626Z,48.30
2018-12-07T07:04:01.235Z,48.30
2018-12-07T07:14:06.271Z,48.30
2018-12-07T07:24:11.143Z,48.30
2018-12-07T07:34:15.903Z,48.50
2018-12-07T07:44:20.494Z,47.10
2018-12-07T07:54:25.263Z,47.30
2018-12-07T08:04:29.864Z,47.50
2018-12-07T08:14:34.523Z,46.80
2018-12-07T08:24:39.218Z,46.90
2018-12-07T08:34:44.908Z,46.70
2018-12-07T08:44:49.890Z,46.90
2018-12-07T08:54:54.661Z,46.90
2018-12-07T09:04:59.353Z,46.90
2018-12-07T09:15:04.630Z,47.10
2018-12-07T09:25:09.321Z,47.50
2018-12-07T09:35:14.164Z,47.90
2018-12-07T09:45:18.932Z,48.60
2018-12-07T09:55:23.625Z,49.40
2018-12-07T10:05:28.651Z,51.20
2018-12-07T10:15:33.290Z,52.10
2018-12-07T10:25:38.024Z,51.00
2018-12-07T10:35:43.001Z,49.50
2018-12-07T10:45:48.067Z,47.70
2018-12-07T10:55:53.635Z,47.90
2018-12-07T11:06:03.672Z,47.70
2018-12-07T11:16:25.203Z,46.80
2018-12-07T11:26:35.161Z,46.10
2018-12-07T11:36:39.921Z,46.60
2018-12-07T11:46:44.719Z,46.30
2018-12-07T11:56:50.265Z,47.30
2018-12-07T12:06:54.972Z,48.10
2018-12-07T12:16:59.761Z,48.30
2018-12-07T12:27:04.586Z,48.30
2018-12-07T12:37:09.168Z,48.30
2018-12-07T12:47:13.807Z,48.30
2018-12-07T12:57:18.454Z,48.00
2018-12-07T13:07:23.291Z,47.90
2018-12-07T13:17:28.200Z,46.90
2018-12-07T13:27:32.898Z,46.50
2018-12-07T13:37:37.707Z,46.60
2018-12-07T13:47:42.589Z,46.60
2018-12-07T13:57:47.647Z,46.60
2018-12-07T14:07:52.641Z,46.70
2018-12-07T14:17:57.629Z,46.60
2018-12-07T14:28:02.527Z,46.60
2018-12-07T14:38:07.777Z,46.70
2018-12-07T14:48:12.748Z,46.70
2018-12-07T14:58:17.600Z,46.60
2018-12-07T15:08:22.314Z,46.60
2018-12-07T15:18:27.472Z,46.50
2018-12-07T15:28:32.431Z,46.50
2018-12-07T15:38:37.260Z,45.90
2018-12-07T15:48:41.999Z,44.20
2018-12-07T15:58:47.191Z,43.80
2018-12-07T16:08:52.106Z,44.00
2018-12-07T16:18:56.934Z,44.60
2018-12-07T16:29:01.849Z,45.00
2018-12-07T16:39:08.519Z,43.80
2018-12-07T16:49:13.434Z,44.40
2018-12-07T16:59:18.294Z,45.40
2018-12-07T17:09:23.027Z,45.20
2018-12-07T17:19:28.033Z,45.40
2018-12-07T17:29:32.955Z,45.80
2018-12-07T17:39:38.049Z,44.40
2018-12-07T17:49:45.690Z,44.90
2018-12-07T17:59:50.568Z,45.80
2018-12-07T18:09:55.770Z,44.30
2018-12-07T18:20:01.174Z,44.50
2018-12-07T18:30:06.091Z,45.10
2018-12-07T18:40:11.007Z,46.60
2018-12-07T18:50:16.894Z,46.60
2018-12-07T19:00:23.548Z,46.40
2018-12-07T19:10:28.630Z,46.90
2018-12-07T19:20:33.835Z,47.10
2018-12-07T19:30:39.440Z,47.20
2018-12-07T19:40:44.703Z,47.30
2018-12-07T19:50:49.995Z,47.40
2018-12-07T20:00:55.701Z,48.00
2018-12-07T20:11:00.708Z,47.50
2018-12-07T20:21:05.556Z,47.00
2018-12-07T20:31:10.456Z,47.70
2018-12-07T20:41:15.182Z,47.70
2018-12-07T20:51:20.906Z,47.80
2018-12-07T21:01:25.973Z,47.80
2018-12-07T21:11:42.445Z,47.90
2018-12-07T21:21:47.271Z,47.90
2018-12-07T21:31:52.646Z,47.90
2018-12-07T21:41:57.622Z,47.90
2018-12-07T21:52:18.220Z,47.90
2018-12-07T22:02:23.153Z,47.90
2018-12-07T22:12:27.976Z,48.00
2018-12-07T22:22:32.812Z,48.00
2018-12-07T22:32:37.673Z,47.90
2018-12-07T22:42:42.751Z,48.00
2018-12-07T22:52:47.908Z,48.10
2018-12-07T23:02:53.324Z,48.00
2018-12-07T23:12:58.801Z,48.50
2018-12-07T23:23:03.887Z,47.90
2018-12-07T23:33:08.542Z,48.00
2018-12-07T23:43:13.298Z,47.90
2018-12-07T23:53:18.015Z,47.90
